Time;durP1;ratioP1;P1;durP2;ratioP2;P2;SDS_P1;SDS_P2;PMS_P1;PMS_P2;Temp;Humidity;BMP_temperature;BMP_pressure;BME280_temperature;BME280_humidity;BME280_pressure;Samples;Min_cycle;Max_cycle;Signal;HPM_P1;HPM_P2
2022/03/14 00:01:55;;;;;;;5.13;2.65;;;19.20;59.00;;;;;;5053580;28;20377;-64
2022/03/14 00:04:20;;;;;;;5.90;2.80;;;19.20;59.10;;;;;;5053779;28;20025;-64
2022/03/14 00:06:49;;;;;;;6.05;2.40;;;19.10;59.00;;;;;;5053808;28;20033;-64
2022/03/14 00:09:17;;;;;;;7.40;2.45;;;19.10;59.10;;;;;;5053714;28;20505;-64
2022/03/14 00:11:43;;;;;;;7.93;2.92;;;19.10;59.10;;;;;;5053879;28;20079;-64
2022/03/14 00:14:09;;;;;;;5.05;2.13;;;19.10;59.10;;;;;;5035821;28;20028;-64
2022/03/14 00:16:45;;;;;;;5.20;2.90;;;19.10;59.10;;;;;;5053439;28;20483;-64
2022/03/14 00:19:11;;;;;;;4.82;2.42;;;19.10;59.10;;;;;;5033645;28;20021;-64
2022/03/14 00:21:39;;;;;;;3.65;2.00;;;19.10;59.20;;;;;;5033423;28;20387;-65
2022/03/14 00:24:06;;;;;;;6.13;2.90;;;19.10;59.20;;;;;;5033287;28;20041;-65
2022/03/14 00:26:33;;;;;;;4.47;2.35;;;19.10;59.30;;;;;;5033489;28;20026;-65
2022/03/14 00:28:59;;;;;;;5.63;2.20;;;19.10;59.30;;;;;;5033091;28;20021;-65
2022/03/14 00:31:24;;;;;;;3.92;2.45;;;19.10;59.30;;;;;;5033417;28;20041;-65
2022/03/14 00:33:50;;;;;;;3.63;2.20;;;19.00;59.20;;;;;;5015931;28;20029;-65
2022/03/14 00:36:16;;;;;;;4.03;2.13;;;19.10;59.30;;;;;;5015823;28;20032;-65
2022/03/14 00:38:42;;;;;;;4.88;2.47;;;19.10;59.30;;;;;;5033307;28;20026;-65
2022/03/14 00:41:08;;;;;;;3.67;2.40;;;19.10;59.30;;;;;;5033096;28;20049;-65
2022/03/14 00:43:34;;;;;;;3.90;2.25;;;19.00;60.20;;;;;;5030457;28;20044;-65
2022/03/14 00:46:00;;;;;;;5.72;2.35;;;19.00;59.30;;;;;;5051893;28;20024;-64
2022/03/14 00:48:25;;;;;;;4.60;2.40;;;19.10;59.30;;;;;;5051909;28;20061;-64
2022/03/14 00:50:51;;;;;;;4.25;2.40;;;19.00;59.30;;;;;;5052964;28;20144;-64
2022/03/14 00:53:17;;;;;;;3.95;2.15;;;19.00;59.30;;;;;;5052903;28;20056;-64
2022/03/14 00:55:43;;;;;;;4.75;2.25;;;19.00;59.30;;;;;;5052680;28;20025;-64
2022/03/14 00:58:08;;;;;;;3.97;2.38;;;19.10;59.40;;;;;;5052518;28;20395;-64
2022/03/14 01:00:34;;;;;;;5.85;2.13;;;19.00;59.30;;;;;;5052884;28;20048;-64
2022/03/14 01:03:00;;;;;;;3.05;1.92;;;19.00;59.40;;;;;;5051634;28;20025;-64
2022/03/14 01:05:29;;;;;;;3.22;2.38;;;19.00;59.40;;;;;;5052609;28;20021;-64
2022/03/14 01:07:54;;;;;;;2.25;1.70;;;19.10;59.50;;;;;;5052733;28;20403;-64
2022/03/14 01:10:20;;;;;;;4.53;2.30;;;19.00;59.40;;;;;;5052654;28;20062;-64
2022/03/14 01:12:46;;;;;;;3.75;2.08;;;19.00;59.40;;;;;;5051309;28;20067;-65
2022/03/14 01:15:12;;;;;;;4.28;2.20;;;19.00;59.50;;;;;;5051241;28;20017;-64
2022/03/14 01:17:38;;;;;;;3.67;2.10;;;19.00;59.50;;;;;;5044031;28;20048;-64
2022/03/14 01:20:05;;;;;;;3.58;2.15;;;19.00;59.50;;;;;;5032529;28;20099;-64
2022/03/14 01:22:31;;;;;;;3.40;1.88;;;19.00;59.50;;;;;;5032550;28;20049;-64
2022/03/14 01:24:57;;;;;;;2.95;1.90;;;19.00;59.60;;;;;;5031444;28;20045;-64
2022/03/14 01:27:22;;;;;;;4.85;2.25;;;19.00;59.60;;;;;;5032225;28;20553;-64
2022/03/14 01:29:48;;;;;;;3.22;1.90;;;18.90;59.60;;;;;;5031960;28;20033;-64
2022/03/14 01:32:13;;;;;;;5.38;2.30;;;18.90;59.60;;;;;;5032365;28;20061;-65
2022/03/14 01:34:39;;;;;;;5.13;2.45;;;18.90;59.60;;;;;;5032493;28;20416;-64
2022/03/14 01:37:05;;;;;;;3.10;1.98;;;18.90;59.70;;;;;;5032354;28;20029;-64
2022/03/14 01:39:31;;;;;;;2.55;1.77;;;18.90;59.80;;;;;;5032429;28;20032;-64
2022/03/14 01:41:57;;;;;;;3.67;2.00;;;18.90;59.70;;;;;;5034135;28;20476;-64
2022/03/14 01:44:23;;;;;;;4.28;1.83;;;18.90;59.80;;;;;;5051059;28;20025;-64
2022/03/14 01:46:49;;;;;;;3.10;1.88;;;18.90;59.80;;;;;;5052246;28;20036;-64
2022/03/14 01:49:15;;;;;;;3.20;1.98;;;18.90;59.80;;;;;;5052016;28;20029;-64
2022/03/14 01:51:41;;;;;;;2.30;1.70;;;18.90;59.80;;;;;;5052228;28;20034;-64
2022/03/14 01:54:10;;;;;;;4.82;2.08;;;18.90;59.80;;;;;;5050778;28;21972;-64
2022/03/14 01:56:39;;;;;;;3.15;1.95;;;18.90;59.80;;;;;;5050784;28;20021;-64
2022/03/14 01:59:05;;;;;;;2.72;1.90;;;18.90;59.90;;;;;;5034228;28;20462;-64
2022/03/14 02:01:32;;;;;;;3.17;2.08;;;18.90;61.00;;;;;;5052208;28;20510;-64
2022/03/14 02:03:59;;;;;;;4.45;1.90;;;18.90;59.90;;;;;;5052222;28;20021;-64
2022/03/14 02:06:24;;;;;;;4.20;1.85;;;18.90;60.00;;;;;;5051846;28;20018;-64
2022/03/14 02:08:50;;;;;;;2.53;1.95;;;18.90;60.00;;;;;;5051927;28;20025;-64
2022/03/14 02:11:15;;;;;;;2.58;1.60;;;18.90;60.00;;;;;;5051760;28;20100;-64
2022/03/14 02:13:41;;;;;;;3.15;1.92;;;18.90;60.00;;;;;;5052091;28;20107;-64
2022/03/14 02:16:07;;;;;;;3.95;2.17;;;18.90;60.00;;;;;;5051876;28;20111;-64
2022/03/14 02:18:32;;;;;;;2.10;1.63;;;18.90;61.00;;;;;;5036125;28;20041;-64
2022/03/14 02:20:58;;;;;;;2.85;1.90;;;18.90;60.20;;;;;;5031840;28;20484;-64
2022/03/14 02:23:24;;;;;;;2.45;1.80;;;18.90;60.10;;;;;;5031945;28;20466;-64
2022/03/14 02:25:53;;;;;;;2.72;1.90;;;18.90;60.10;;;;;;5031823;28;20022;-65
2022/03/14 02:28:22;;;;;;;2.85;1.60;;;18.90;60.20;;;;;;4998079;28;20053;-64
2022/03/14 02:30:50;;;;;;;3.13;1.60;;;18.90;60.20;;;;;;5014575;28;20026;-65
2022/03/14 02:33:16;;;;;;;2.22;1.60;;;18.90;60.20;;;;;;5031672;28;20036;-64
2022/03/14 02:35:42;;;;;;;3.35;1.75;;;18.90;60.20;;;;;;5031672;28;20104;-64
2022/03/14 02:38:09;;;;;;;3.80;1.55;;;18.90;60.20;;;;;;5031805;28;20104;-65
2022/03/14 02:40:38;;;;;;;2.78;1.70;;;18.80;60.60;;;;;;5031675;28;20018;-65
2022/03/14 02:43:04;;;;;;;3.13;1.58;;;18.80;60.20;;;;;;5045232;28;20064;-65
2022/03/14 02:45:30;;;;;;;2.75;1.67;;;18.80;60.30;;;;;;5054048;28;20456;-65
2022/03/14 02:47:55;;;;;;;2.85;1.80;;;18.90;60.30;;;;;;5055438;28;20498;-64
2022/03/14 02:50:21;;;;;;;3.38;1.50;;;18.80;60.30;;;;;;5055125;28;20021;-64
2022/03/14 02:52:47;;;;;;;2.63;1.92;;;18.80;60.30;;;;;;5055340;28;20075;-64
2022/03/14 02:55:14;;;;;;;2.80;1.30;;;18.80;60.30;;;;;;5054950;28;20438;-65
2022/03/14 02:57:40;;;;;;;4.53;1.67;;;18.80;60.30;;;;;;5055156;28;20051;-64
2022/03/14 03:00:07;;;;;;;2.30;1.60;;;18.80;60.30;;;;;;5054877;28;20479;-65
2022/03/14 03:02:35;;;;;;;3.13;1.85;;;18.80;60.40;;;;;;5055246;28;20021;-65
2022/03/14 03:05:05;;;;;;;2.28;1.58;;;18.80;60.40;;;;;;5055029;28;20103;-64
2022/03/14 03:07:31;;;;;;;3.03;1.73;;;18.80;60.40;;;;;;5054883;28;20028;-64
2022/03/14 03:09:57;;;;;;;3.10;1.70;;;18.80;60.40;;;;;;5054677;28;20052;-64
2022/03/14 03:12:30;;;;;;;2.72;1.48;;;18.80;60.40;;;;;;5053668;28;20063;-64
2022/03/14 03:14:56;;;;;;;1.88;1.58;;;18.80;60.50;;;;;;5054787;28;20056;-64
2022/03/14 03:17:21;;;;;;;3.25;1.50;;;18.80;60.50;;;;;;5054577;28;20075;-64
2022/03/14 03:19:47;;;;;;;2.65;1.50;;;18.80;60.50;;;;;;5054891;28;20024;-64
2022/03/14 03:22:12;;;;;;;5.60;1.52;;;18.80;60.50;;;;;;5054364;28;20021;-64
2022/03/14 03:24:38;;;;;;;2.60;1.50;;;18.80;60.50;;;;;;5054558;28;20151;-64
2022/03/14 03:27:04;;;;;;;2.00;1.58;;;18.80;60.50;;;;;;5054640;28;20029;-64
2022/03/14 03:29:30;;;;;;;1.88;1.35;;;18.80;60.50;;;;;;5054409;28;20028;-64
2022/03/14 03:31:56;;;;;;;2.05;1.35;;;18.80;60.60;;;;;;5054529;28;20036;-64
2022/03/14 03:34:22;;;;;;;1.73;1.40;;;18.70;60.50;;;;;;5036320;28;20021;-64
2022/03/14 03:36:47;;;;;;;1.95;1.40;;;18.70;60.50;;;;;;5054393;28;20100;-64
2022/03/14 03:39:13;;;;;;;2.22;1.42;;;18.70;60.50;;;;;;5054154;28;20049;-64
2022/03/14 03:41:39;;;;;;;2.38;1.52;;;18.70;60.60;;;;;;5054261;28;20495;-64
2022/03/14 03:44:06;;;;;;;2.72;1.52;;;18.70;60.60;;;;;;5036772;28;20017;-64
2022/03/14 03:46:31;;;;;;;2.90;1.48;;;18.70;60.60;;;;;;5054208;28;20051;-64
2022/03/14 03:48:57;;;;;;;2.78;1.33;;;18.70;60.60;;;;;;5054397;28;20013;-65
2022/03/14 03:51:23;;;;;;;2.00;1.45;;;18.70;60.60;;;;;;5054059;28;20533;-65
2022/03/14 03:53:48;;;;;;;3.17;1.42;;;18.70;60.70;;;;;;5053711;28;20028;-65
2022/03/14 03:56:14;;;;;;;2.70;1.60;;;18.70;60.70;;;;;;5053933;28;20483;-65
2022/03/14 03:58:40;;;;;;;2.05;1.30;;;18.70;60.70;;;;;;5052809;28;20479;-65
2022/03/14 04:01:05;;;;;;;2.55;1.50;;;18.70;60.70;;;;;;5052821;28;20402;-65
2022/03/14 04:03:32;;;;;;;2.05;1.30;;;18.70;60.70;;;;;;5053712;28;20021;-65
2022/03/14 04:05:58;;;;;;;2.17;1.38;;;18.70;60.70;;;;;;5053867;28;20392;-65
2022/03/14 04:08:30;;;;;;;1.85;1.48;;;18.70;61.70;;;;;;5053446;28;20025;-65
2022/03/14 04:10:57;;;;;;;2.38;1.48;;;18.70;60.70;;;;;;5052592;28;20020;-65
2022/03/14 04:13:24;;;;;;;1.40;1.30;;;18.70;60.70;;;;;;5053603;28;20376;-65
2022/03/14 04:15:54;;;;;;;1.83;1.20;;;18.70;60.80;;;;;;5053672;28;20025;-65
2022/03/14 04:18:20;;;;;;;2.05;1.35;;;18.70;60.80;;;;;;5039348;28;20079;-65
2022/03/14 04:20:49;;;;;;;2.85;1.40;;;18.70;60.80;;;;;;5033340;28;20623;-65
2022/03/14 04:23:18;;;;;;;2.42;1.38;;;18.70;60.80;;;;;;5029067;28;20046;-65
2022/03/14 04:25:44;;;;;;;2.80;1.27;;;18.70;60.80;;;;;;5013563;28;20415;-65
2022/03/14 04:28:11;;;;;;;1.80;1.10;;;18.70;60.80;;;;;;5013708;28;20159;-65
2022/03/14 04:30:37;;;;;;;1.95;1.42;;;18.70;61.80;;;;;;4996143;28;20092;-65
2022/03/14 04:33:03;;;;;;;1.77;1.23;;;18.60;60.80;;;;;;5013697;28;20440;-65
2022/03/14 04:35:29;;;;;;;1.73;1.10;;;18.60;60.80;;;;;;5013250;28;20025;-65
2022/03/14 04:37:55;;;;;;;1.33;1.00;;;18.60;60.70;;;;;;5013457;28;20022;-65
2022/03/14 04:40:21;;;;;;;1.73;1.20;;;18.60;60.80;;;;;;5013453;28;20052;-64
2022/03/14 04:42:46;;;;;;;1.70;1.23;;;18.60;60.80;;;;;;5031833;28;20092;-64
2022/03/14 04:45:12;;;;;;;1.92;1.27;;;18.60;60.80;;;;;;5033042;28;20032;-64
2022/03/14 04:47:38;;;;;;;3.03;1.25;;;18.60;60.80;;;;;;5032972;28;20447;-64
2022/03/14 04:50:04;;;;;;;1.10;1.00;;;18.60;60.90;;;;;;5032896;28;20496;-64
2022/03/14 04:52:30;;;;;;;3.85;1.20;;;18.60;60.90;;;;;;5032906;28;20022;-64
2022/03/14 04:54:56;;;;;;;1.20;1.10;;;18.60;60.80;;;;;;5033034;28;20053;-64
2022/03/14 04:57:22;;;;;;;1.88;1.02;;;18.60;60.90;;;;;;5032923;28;20415;-64
2022/03/14 04:59:48;;;;;;;1.55;1.10;;;18.60;60.90;;;;;;5032761;28;20032;-64
2022/03/14 05:02:14;;;;;;;1.20;1.10;;;18.60;60.90;;;;;;5033097;28;20021;-64
2022/03/14 05:04:39;;;;;;;1.25;1.02;;;18.60;61.00;;;;;;5032528;28;20100;-64
2022/03/14 05:07:07;;;;;;;1.20;1.10;;;18.60;60.90;;;;;;5032999;28;20455;-64
2022/03/14 05:09:33;;;;;;;1.10;0.93;;;18.60;61.00;;;;;;5031314;28;20029;-64
2022/03/14 05:11:59;;;;;;;1.60;1.00;;;18.60;61.00;;;;;;5031738;28;20128;-64
2022/03/14 05:14:24;;;;;;;1.73;1.23;;;18.60;61.00;;;;;;5032647;28;20509;-64
2022/03/14 05:16:50;;;;;;;2.63;1.20;;;18.60;61.00;;;;;;5032434;28;20417;-64
2022/03/14 05:19:16;;;;;;;1.55;1.10;;;18.60;61.00;;;;;;5032490;28;20491;-64
2022/03/14 05:21:41;;;;;;;1.45;1.10;;;18.60;61.00;;;;;;5032388;28;20075;-64
2022/03/14 05:24:08;;;;;;;1.65;1.00;;;18.60;61.00;;;;;;5048666;28;20071;-64
2022/03/14 05:26:34;;;;;;;1.63;1.13;;;18.60;61.00;;;;;;5052396;28;20021;-64
2022/03/14 05:28:59;;;;;;;1.40;1.10;;;18.50;61.00;;;;;;5052311;28;20045;-65
2022/03/14 05:31:25;;;;;;;2.42;1.10;;;18.60;61.00;;;;;;5052316;28;20025;-64
2022/03/14 05:33:51;;;;;;;2.15;1.42;;;18.50;61.00;;;;;;5052171;28;20036;-64
2022/03/14 05:36:16;;;;;;;1.80;1.20;;;18.60;61.10;;;;;;5052435;28;20017;-65
2022/03/14 05:38:42;;;;;;;1.10;1.00;;;18.50;61.10;;;;;;5052256;28;20108;-65
2022/03/14 05:41:08;;;;;;;1.20;0.85;;;18.50;61.10;;;;;;5052492;28;20027;-65
2022/03/14 05:43:37;;;;;;;1.58;1.00;;;18.50;61.10;;;;;;5052071;28;20112;-65
2022/03/14 05:46:04;;;;;;;1.45;0.90;;;18.50;61.10;;;;;;5052156;28;20055;-65
2022/03/14 05:48:35;;;;;;;2.83;1.00;;;18.50;61.10;;;;;;5052001;28;20021;-65
2022/03/14 05:51:04;;;;;;;1.30;0.95;;;18.50;61.10;;;;;;5052132;28;20453;-65
2022/03/14 05:53:31;;;;;;;2.60;1.00;;;18.50;61.10;;;;;;5052071;28;20086;-65
2022/03/14 05:55:57;;;;;;;1.50;1.08;;;18.50;61.20;;;;;;5052129;28;20021;-65
2022/03/14 05:58:23;;;;;;;1.23;1.10;;;18.50;61.10;;;;;;5050896;28;20013;-65
2022/03/14 06:00:51;;;;;;;1.17;1.05;;;18.50;61.10;;;;;;5052148;28;20017;-65
2022/03/14 06:03:17;;;;;;;1.52;0.95;;;18.50;61.20;;;;;;5051855;28;20025;-64
2022/03/14 06:05:42;;;;;;;3.92;1.67;;;18.50;61.20;;;;;;5044831;28;20031;-64
2022/03/14 06:08:08;;;;;;;1.60;1.05;;;18.40;61.20;;;;;;5044392;28;20029;-64
2022/03/14 06:10:34;;;;;;;2.35;1.08;;;18.50;61.20;;;;;;5013628;28;20109;-64
2022/03/14 06:13:00;;;;;;;1.13;0.88;;;18.50;61.30;;;;;;5031464;28;20515;-64
2022/03/14 06:15:25;;;;;;;1.30;1.20;;;18.50;61.20;;;;;;5031252;28;20523;-64
2022/03/14 06:17:51;;;;;;;0.90;0.80;;;18.50;61.30;;;;;;5044605;28;20029;-64
2022/03/14 06:20:17;;;;;;;2.17;0.90;;;18.50;61.30;;;;;;5055158;28;20033;-64
2022/03/14 06:22:46;;;;;;;2.45;1.13;;;18.50;61.30;;;;;;5055410;28;20037;-64
2022/03/14 06:25:13;;;;;;;0.88;0.88;;;18.50;61.30;;;;;;5055868;28;20025;-64
2022/03/14 06:27:39;;;;;;;1.67;0.90;;;18.50;61.40;;;;;;5054388;28;20043;-64
2022/03/14 06:30:06;;;;;;;1.48;0.90;;;18.50;61.30;;;;;;5054346;28;20398;-64
2022/03/14 06:32:38;;;;;;;0.70;0.70;;;18.50;61.30;;;;;;5054235;28;20029;-64
2022/03/14 06:35:08;;;;;;;0.80;0.80;;;18.50;61.30;;;;;;5054393;28;20028;-64
2022/03/14 06:37:34;;;;;;;0.73;0.63;;;18.50;61.20;;;;;;5054355;28;20021;-64
2022/03/14 06:39:59;;;;;;;1.08;0.55;;;18.40;61.20;;;;;;5054068;28;20490;-64
2022/03/14 06:42:25;;;;;;;0.70;0.70;;;18.50;61.20;;;;;;5049722;28;20459;-64
2022/03/14 06:44:51;;;;;;;1.13;0.77;;;18.40;61.10;;;;;;5054569;28;20017;-64
2022/03/14 06:47:17;;;;;;;0.65;0.50;;;18.50;61.20;;;;;;5054405;28;20539;-64
2022/03/14 06:49:44;;;;;;;0.50;0.50;;;18.50;61.10;;;;;;5054330;28;20051;-64
2022/03/14 06:52:10;;;;;;;0.30;0.30;;;18.50;61.00;;;;;;5054092;28;20041;-64
2022/03/14 06:54:36;;;;;;;0.52;0.38;;;18.50;61.10;;;;;;5053669;28;20036;-64
2022/03/14 06:57:02;;;;;;;1.15;0.35;;;18.50;61.00;;;;;;5051971;28;20024;-64
2022/03/14 06:59:28;;;;;;;4.70;0.65;;;18.50;61.00;;;;;;5053787;28;20013;-64
2022/03/14 07:01:54;;;;;;;0.73;0.70;;;18.50;61.00;;;;;;5055342;28;20050;-64
2022/03/14 07:04:19;;;;;;;4.55;1.10;;;18.50;61.10;;;;;;5021299;28;20048;-64
2022/03/14 07:06:45;;;;;;;6.10;1.40;;;18.50;61.00;;;;;;5053992;28;20028;-64
2022/03/14 07:09:11;;;;;;;2.80;1.05;;;18.50;61.00;;;;;;5054863;28;20096;-64
2022/03/14 07:11:37;;;;;;;8.75;1.80;;;18.50;61.00;;;;;;5037073;28;20530;-64
2022/03/14 07:14:03;;;;;;;2.88;1.20;;;18.60;61.00;;;;;;5054711;28;20024;-64
2022/03/14 07:16:28;;;;;;;6.45;1.10;;;18.60;61.00;;;;;;5054749;28;20036;-64
2022/03/14 07:18:54;;;;;;;9.73;1.92;;;18.60;60.90;;;;;;5035973;28;20018;-64
2022/03/14 07:21:21;;;;;;;4.20;1.20;;;18.50;60.90;;;;;;5050232;28;20026;-64
2022/03/14 07:23:46;;;;;;;5.95;1.30;;;18.60;60.90;;;;;;5047852;28;20410;-64
2022/03/14 07:26:12;;;;;;;4.85;1.30;;;18.60;61.90;;;;;;5053635;28;20033;-64
2022/03/14 07:28:38;;;;;;;4.07;1.35;;;18.60;60.90;;;;;;5053889;28;20028;-64
2022/03/14 07:31:05;;;;;;;3.92;1.25;;;18.60;60.90;;;;;;5054374;28;20112;-64
2022/03/14 07:33:31;;;;;;;5.03;1.23;;;18.60;60.90;;;;;;5054378;28;20017;-64
2022/03/14 07:35:56;;;;;;;5.25;1.10;;;18.60;60.90;;;;;;5053208;28;20029;-64
2022/03/14 07:38:22;;;;;;;5.05;1.38;;;18.60;60.90;;;;;;5054551;28;20368;-64
2022/03/14 07:40:48;;;;;;;5.22;1.40;;;18.60;60.80;;;;;;5054148;28;20513;-64
2022/03/14 07:43:13;;;;;;;4.22;1.42;;;18.60;60.90;;;;;;5054362;28;20557;-64
2022/03/14 07:45:39;;;;;;;4.97;1.42;;;18.60;60.80;;;;;;5054137;28;20044;-64
2022/03/14 07:48:05;;;;;;;3.95;1.40;;;18.60;60.80;;;;;;5054206;28;20025;-64
2022/03/14 07:50:31;;;;;;;5.75;1.50;;;18.60;60.80;;;;;;5036604;28;20055;-64
2022/03/14 07:52:57;;;;;;;7.53;1.42;;;18.60;60.80;;;;;;5054039;28;20021;-64
2022/03/14 07:55:22;;;;;;;4.18;1.13;;;18.60;60.80;;;;;;5054050;28;20052;-64
2022/03/14 07:57:48;;;;;;;8.25;1.13;;;18.60;60.80;;;;;;5054059;28;20017;-64
2022/03/14 08:00:16;;;;;;;4.57;0.95;;;18.60;60.80;;;;;;5053895;28;20419;-64
2022/03/14 08:02:42;;;;;;;4.97;1.00;;;18.60;60.70;;;;;;5053872;28;20021;-64
2022/03/14 08:05:09;;;;;;;1.70;1.05;;;18.60;60.80;;;;;;5054014;28;20028;-64
2022/03/14 08:07:35;;;;;;;5.75;1.45;;;18.60;60.70;;;;;;5053882;28;20017;-64
2022/03/14 08:10:02;;;;;;;3.13;1.45;;;18.60;60.70;;;;;;5053775;28;20028;-63
2022/03/14 08:12:28;;;;;;;4.35;1.40;;;18.60;60.70;;;;;;5053845;28;20020;-64
2022/03/14 08:14:54;;;;;;;3.95;1.08;;;18.60;60.70;;;;;;5053246;28;20032;-64
2022/03/14 08:17:20;;;;;;;2.88;1.10;;;18.60;60.70;;;;;;5053690;28;20479;-64
2022/03/14 08:19:46;;;;;;;3.63;1.30;;;18.60;60.80;;;;;;5048184;28;20033;-64
2022/03/14 08:22:11;;;;;;;3.65;1.10;;;18.60;60.70;;;;;;5042753;28;20476;-64
2022/03/14 08:24:37;;;;;;;3.20;0.93;;;18.60;60.70;;;;;;5034138;28;20040;-64
2022/03/14 08:27:03;;;;;;;4.00;1.25;;;18.60;60.70;;;;;;5035871;28;20116;-64
2022/03/14 08:29:29;;;;;;;2.63;1.00;;;18.60;60.70;;;;;;5024778;28;20415;-64
2022/03/14 08:31:57;;;;;;;4.03;1.35;;;18.60;60.70;;;;;;5037323;28;20056;-67
2022/03/14 08:34:22;;;;;;;4.60;1.20;;;18.60;60.70;;;;;;5044663;28;20071;-66
2022/03/14 08:36:48;;;;;;;5.45;1.25;;;18.60;60.80;;;;;;5038013;28;20022;-67
2022/03/14 08:39:14;;;;;;;4.88;1.20;;;18.60;60.90;;;;;;5032281;28;20022;-67
2022/03/14 08:41:40;;;;;;;2.92;1.15;;;18.60;61.00;;;;;;5032279;28;20033;-67
2022/03/14 08:44:09;;;;;;;5.03;1.23;;;18.70;61.10;;;;;;5033439;28;20100;-67
2022/03/14 08:46:35;;;;;;;4.50;1.10;;;18.70;61.10;;;;;;5049096;28;20040;-67
2022/03/14 08:49:01;;;;;;;3.10;1.10;;;18.70;61.10;;;;;;5015662;28;20376;-68
2022/03/14 08:51:27;;;;;;;4.15;1.20;;;18.70;61.10;;;;;;5032572;28;20100;-68
2022/03/14 08:53:53;;;;;;;3.92;1.00;;;18.80;61.10;;;;;;5015955;28;20096;-68
2022/03/14 08:56:18;;;;;;;3.45;0.80;;;18.80;61.10;;;;;;5032320;28;20075;-68
2022/03/14 08:58:44;;;;;;;1.55;0.90;;;18.80;61.10;;;;;;5033623;28;20535;-67
2022/03/14 09:01:11;;;;;;;1.58;0.88;;;18.90;61.10;;;;;;5032501;28;20025;-68
2022/03/14 09:03:37;;;;;;;2.10;0.95;;;18.90;61.10;;;;;;5033502;28;20043;-68
2022/03/14 09:06:02;;;;;;;3.00;1.05;;;18.90;61.00;;;;;;5041678;28;20024;-68
2022/03/14 09:08:28;;;;;;;3.22;0.77;;;19.00;61.10;;;;;;5052248;28;20032;-68
2022/03/14 09:10:55;;;;;;;1.67;0.80;;;18.90;61.00;;;;;;5051764;28;20021;-68
2022/03/14 09:13:21;;;;;;;5.63;0.98;;;19.00;61.00;;;;;;5051751;28;20017;-67
2022/03/14 09:15:50;;;;;;;5.88;1.30;;;19.00;61.00;;;;;;5046816;28;20025;-65
2022/03/14 09:18:16;;;;;;;2.75;0.88;;;19.00;60.90;;;;;;5026506;28;20017;-65
2022/03/14 09:20:42;;;;;;;4.00;1.20;;;19.00;60.80;;;;;;5033640;28;20028;-68
2022/03/14 09:23:08;;;;;;;1.88;1.00;;;19.10;60.70;;;;;;5006510;28;20034;-65
2022/03/14 09:25:34;;;;;;;2.85;1.20;;;19.10;60.80;;;;;;5035215;28;20048;-65
2022/03/14 09:28:00;;;;;;;2.63;1.00;;;19.10;60.80;;;;;;5053009;28;20097;-69
2022/03/14 09:30:26;;;;;;;3.65;1.02;;;19.10;60.70;;;;;;5035037;28;20033;-69
2022/03/14 09:32:52;;;;;;;1.73;0.70;;;19.10;60.80;;;;;;5035202;28;20021;-69
2022/03/14 09:35:18;;;;;;;1.23;0.70;;;19.10;60.70;;;;;;5035175;28;20067;-69
2022/03/14 09:37:45;;;;;;;4.38;1.05;;;19.20;60.80;;;;;;5053017;28;20095;-69
2022/03/14 09:40:12;;;;;;;3.05;1.02;;;19.20;60.70;;;;;;5035042;28;20056;-69
2022/03/14 09:42:43;;;;;;;2.00;0.68;;;19.20;60.70;;;;;;5045295;28;20028;-69
2022/03/14 09:45:10;;;;;;;1.27;0.82;;;19.20;60.70;;;;;;5031710;28;20022;-70
2022/03/14 09:47:40;;;;;;;2.53;0.88;;;19.20;60.60;;;;;;5015287;28;20026;-71
2022/03/14 09:50:08;;;;;;;1.23;0.77;;;19.30;60.60;;;;;;5031869;28;20029;-70
2022/03/14 09:52:36;;;;;;;2.60;0.90;;;19.30;60.60;;;;;;5036406;28;20028;-68
2022/03/14 09:55:01;;;;;;;1.48;0.70;;;19.30;60.60;;;;;;5036721;28;20030;-68
2022/03/14 09:57:27;;;;;;;2.17;1.05;;;19.30;60.60;;;;;;5037126;28;20542;-67
2022/03/14 09:59:53;;;;;;;3.00;1.00;;;19.30;60.50;;;;;;5018938;28;20026;-65
2022/03/14 10:02:19;;;;;;;2.47;0.80;;;19.30;60.50;;;;;;5035892;28;20033;-65
2022/03/14 10:04:44;;;;;;;1.33;0.60;;;19.40;60.50;;;;;;5054361;28;20067;-65
2022/03/14 10:07:10;;;;;;;2.25;0.70;;;19.40;60.50;;;;;;5055484;28;20368;-66
2022/03/14 10:09:37;;;;;;;2.70;0.80;;;19.40;60.40;;;;;;5054917;28;20066;-66
2022/03/14 10:12:03;;;;;;;1.60;1.00;;;19.40;60.30;;;;;;5055279;28;20089;-64
2022/03/14 10:14:29;;;;;;;1.40;0.60;;;19.40;60.20;;;;;;5055360;28;20025;-65
2022/03/14 10:16:55;;;;;;;1.92;0.70;;;19.40;60.10;;;;;;5056398;28;20021;-65
2022/03/14 10:19:22;;;;;;;3.25;0.82;;;19.40;60.10;;;;;;5056495;28;20103;-65
2022/03/14 10:21:50;;;;;;;1.98;0.80;;;19.40;60.00;;;;;;5037859;28;20036;-65
2022/03/14 10:24:19;;;;;;;2.08;0.70;;;19.40;60.00;;;;;;5055412;28;20072;-65
2022/03/14 10:26:45;;;;;;;1.38;0.70;;;19.30;59.90;;;;;;5054739;28;20033;-65
2022/03/14 10:29:12;;;;;;;1.67;0.65;;;19.30;59.90;;;;;;5055560;28;20415;-65
2022/03/14 10:31:40;;;;;;;1.27;0.57;;;19.30;59.90;;;;;;5055629;28;20560;-65
2022/03/14 10:34:07;;;;;;;1.83;0.70;;;19.30;59.80;;;;;;5055499;28;20032;-65
2022/03/14 10:36:43;;;;;;;2.08;0.85;;;19.30;59.90;;;;;;5055554;28;20056;-65
2022/03/14 10:39:25;;;;;;;0.60;0.60;;;19.30;59.70;;;;;;5055339;28;20028;-65
2022/03/14 10:42:02;;;;;;;0.93;0.73;;;19.30;59.60;;;;;;5054542;28;20025;-65
2022/03/14 10:44:28;;;;;;;1.33;0.70;;;19.30;59.70;;;;;;5054584;28;20311;-65
2022/03/14 10:46:54;;;;;;;1.08;0.70;;;19.20;59.80;;;;;;5053741;28;20099;-65
2022/03/14 10:49:26;;;;;;;0.95;0.63;;;19.20;59.80;;;;;;5054217;28;20028;-65
2022/03/14 10:51:53;;;;;;;1.70;0.70;;;19.20;59.70;;;;;;5055288;28;20406;-65
2022/03/14 10:54:19;;;;;;;2.00;0.63;;;19.20;59.70;;;;;;5053833;28;20029;-65
2022/03/14 10:57:04;;;;;;;1.52;0.93;;;19.20;59.70;;;;;;5055433;28;20051;-65
2022/03/14 10:59:36;;;;;;;1.17;0.70;;;19.20;59.50;;;;;;5055181;28;20047;-65
2022/03/14 11:02:03;;;;;;;;;;;19.20;59.70;;;;;;5055296;28;20017;-65
2022/03/14 11:04:28;;;;;;;0.75;0.60;;;19.10;59.60;;;;;;5054398;28;19967;-65
2022/03/14 11:07:00;;;;;;;1.77;0.60;;;19.10;60.00;;;;;;5054872;28;20522;-65
2022/03/14 11:09:47;;;;;;;2.00;0.77;;;19.10;59.80;;;;;;5053794;28;20095;-65
2022/03/14 11:12:17;;;;;;;1.48;0.68;;;19.20;59.70;;;;;;5054921;28;20021;-65
2022/03/14 11:14:51;;;;;;;2.22;0.82;;;19.10;59.80;;;;;;5054866;28;20025;-65
2022/03/14 11:17:18;;;;;;;1.17;0.65;;;19.10;59.70;;;;;;5054782;28;20032;-65
2022/03/14 11:19:44;;;;;;;1.27;1.08;;;19.10;59.70;;;;;;5054830;28;20029;-65
2022/03/14 11:22:11;;;;;;;1.15;0.70;;;19.00;59.70;;;;;;5054250;28;20028;-65
2022/03/14 11:24:41;;;;;;;1.50;0.70;;;19.10;59.70;;;;;;5054834;28;20060;-65
2022/03/14 11:27:09;;;;;;;1.35;0.52;;;19.10;59.70;;;;;;5054606;28;20063;-65
2022/03/14 11:29:34;;;;;;;1.67;0.80;;;19.10;59.70;;;;;;5036826;28;20021;-65
2022/03/14 11:32:00;;;;;;;0.75;0.50;;;19.00;59.60;;;;;;5036923;28;20029;-65
2022/03/14 11:34:29;;;;;;;1.05;0.82;;;19.10;59.60;;;;;;5053264;28;20113;-65
2022/03/14 11:36:54;;;;;;;1.60;0.90;;;19.10;59.70;;;;;;5054343;28;20032;-65
2022/03/14 11:39:20;;;;;;;0.98;0.52;;;19.00;59.60;;;;;;5053204;28;20104;-65
2022/03/14 11:41:46;;;;;;;1.52;0.70;;;19.00;59.60;;;;;;5052714;28;20029;-65
2022/03/14 11:44:12;;;;;;;1.02;0.52;;;19.00;59.50;;;;;;5049640;28;20104;-65
2022/03/14 11:46:38;;;;;;;1.15;0.70;;;19.10;59.60;;;;;;5049871;28;20125;-65
2022/03/14 11:49:25;;;;;;;1.48;0.40;;;19.00;59.50;;;;;;5034233;28;20598;-65
2022/03/14 11:51:51;;;;;;;1.00;0.68;;;19.10;59.40;;;;;;5049301;28;20030;-65
2022/03/14 11:54:16;;;;;;;0.70;0.52;;;19.00;59.60;;;;;;5034023;28;20030;-65
2022/03/14 11:56:55;;;;;;;0.90;0.50;;;19.00;59.50;;;;;;5049563;28;20029;-65
2022/03/14 11:59:28;;;;;;;1.23;0.55;;;19.00;59.50;;;;;;5033786;28;20018;-65
2022/03/14 12:01:55;;;;;;;;;;;19.10;59.60;;;;;;5034462;28;20018;-65
2022/03/14 12:04:27;;;;;;;0.85;0.40;;;19.00;59.50;;;;;;5032770;28;19916;-65
2022/03/14 12:06:55;;;;;;;0.70;0.38;;;18.90;59.70;;;;;;5033831;28;20029;-65
2022/03/14 12:09:24;;;;;;;1.23;0.55;;;18.90;59.70;;;;;;5033839;28;20109;-65
2022/03/14 12:11:50;;;;;;;0.80;0.40;;;19.00;59.70;;;;;;5034017;28;20026;-65
2022/03/14 12:14:45;;;;;;;0.70;0.50;;;19.00;59.60;;;;;;5032276;28;20030;-65
2022/03/14 12:17:13;;;;;;;0.70;0.50;;;19.00;59.40;;;;;;5033740;28;20096;-65
2022/03/14 12:19:44;;;;;;;0.85;0.40;;;19.00;59.70;;;;;;5033548;28;20123;-65
2022/03/14 12:22:13;;;;;;;1.92;0.45;;;19.00;59.60;;;;;;5033603;28;20029;-65
2022/03/14 12:24:39;;;;;;;0.88;0.40;;;18.90;59.60;;;;;;5032533;28;20038;-65
2022/03/14 12:27:40;;;;;;;0.70;0.50;;;18.90;59.50;;;;;;5033656;28;20030;-65
2022/03/14 12:30:15;;;;;;;0.73;0.47;;;19.00;59.40;;;;;;5032210;28;20026;-65
2022/03/14 12:32:48;;;;;;;0.77;0.45;;;18.90;59.60;;;;;;5033598;28;20036;-65
2022/03/14 12:35:17;;;;;;;0.95;0.40;;;19.00;59.60;;;;;;5033113;28;20391;-65
2022/03/14 12:37:54;;;;;;;1.48;0.65;;;19.00;59.60;;;;;;5033429;28;20025;-65
2022/03/14 12:40:19;;;;;;;0.98;0.35;;;19.00;59.50;;;;;;5032169;28;20068;-65
2022/03/14 12:42:49;;;;;;;1.10;0.50;;;19.00;59.60;;;;;;5041780;28;20024;-65
2022/03/14 12:45:16;;;;;;;0.82;0.40;;;19.00;59.50;;;;;;5052055;28;20017;-65
2022/03/14 12:47:42;;;;;;;1.02;0.50;;;19.00;59.60;;;;;;5052026;28;20102;-65